createdAt,value
2022-08-12T00:02:03.023Z,13.50
2022-08-12T00:04:55.858Z,13.50
2022-08-12T00:07:42.341Z,13.50
2022-08-12T00:10:28.561Z,13.40
2022-08-12T00:13:14.944Z,13.30
2022-08-12T00:16:04.796Z,13.30
2022-08-12T00:18:50.511Z,13.30
2022-08-12T00:21:40.161Z,13.30
2022-08-12T00:24:26.863Z,13.30
2022-08-12T00:27:16.374Z,13.30
2022-08-12T00:30:02.446Z,13.20
2022-08-12T00:32:54.650Z,13.20
2022-08-12T00:35:42.357Z,13.20
2022-08-12T00:38:27.914Z,13.10
2022-08-12T00:41:15.936Z,13.10
2022-08-12T00:43:43.968Z,13.00
2022-08-12T00:46:29.246Z,13.00
2022-08-12T00:48:57.109Z,12.90
2022-08-12T00:51:45.287Z,12.90
2022-08-12T00:54:12.882Z,12.90
2022-08-12T00:56:39.866Z,12.90
2022-08-12T00:59:08.259Z,12.90
2022-08-12T01:02:02.283Z,12.80
2022-08-12T01:04:57.034Z,12.80
2022-08-12T01:07:45.581Z,12.80
2022-08-12T01:10:33.748Z,12.70
2022-08-12T01:13:07.327Z,12.70
2022-08-12T01:15:50.556Z,12.70
2022-08-12T01:18:26.503Z,12.60
2022-08-12T01:20:53.295Z,12.60
2022-08-12T01:23:48.733Z,12.60
2022-08-12T01:26:24.515Z,12.60
2022-08-12T01:28:58.550Z,12.60
2022-08-12T01:31:27.664Z,12.60
2022-08-12T01:34:33.342Z,12.50
2022-08-12T01:37:02.377Z,12.50
2022-08-12T01:40:33.580Z,12.50
2022-08-12T01:42:48.519Z,12.50
2022-08-12T01:45:25.565Z,12.40
2022-08-12T01:48:46.701Z,12.40
2022-08-12T01:52:14.843Z,12.50
2022-08-12T01:54:29.643Z,12.40
2022-08-12T01:57:58.264Z,12.30
2022-08-12T02:00:19.080Z,12.30
2022-08-12T02:03:01.996Z,12.30
2022-08-12T02:06:09.397Z,12.20
2022-08-12T02:09:14.643Z,12.20
2022-08-12T02:12:05.360Z,12.30
2022-08-12T02:15:04.665Z,12.20
2022-08-12T02:17:55.853Z,12.20
2022-08-12T02:20:52.740Z,12.10
2022-08-12T02:23:26.794Z,12.10
2022-08-12T02:25:59.305Z,12.00
2022-08-12T02:28:26.710Z,12.00
2022-08-12T02:30:54.683Z,12.00
2022-08-12T02:33:22.024Z,11.90
2022-08-12T02:35:50.295Z,12.00
2022-08-12T02:38:17.490Z,12.00
2022-08-12T02:40:51.890Z,12.00
2022-08-12T02:43:45.779Z,12.00
2022-08-12T02:46:15.637Z,12.00
2022-08-12T02:48:52.313Z,11.90
2022-08-12T02:51:50.295Z,11.80
2022-08-12T02:54:18.996Z,11.70
2022-08-12T02:56:50.357Z,11.70
2022-08-12T02:59:21.335Z,11.70
2022-08-12T03:01:56.954Z,11.70
2022-08-12T03:04:47.724Z,11.70
2022-08-12T03:07:49.313Z,11.70
2022-08-12T03:10:37.240Z,11.60
2022-08-12T03:13:07.412Z,11.70
2022-08-12T03:15:35.892Z,11.70
2022-08-12T03:18:24.832Z,11.70
2022-08-12T03:20:55.211Z,11.70
2022-08-12T03:23:29.097Z,11.70
2022-08-12T03:26:03.815Z,11.80
2022-08-12T03:28:53.069Z,11.70
2022-08-12T03:31:32.325Z,11.70
2022-08-12T03:34:11.122Z,11.60
2022-08-12T03:36:40.033Z,11.60
2022-08-12T03:39:16.644Z,11.60
2022-08-12T03:42:06.219Z,11.60
2022-08-12T03:45:25.027Z,11.60
2022-08-12T03:48:22.663Z,11.60
2022-08-12T03:51:08.474Z,11.60
2022-08-12T03:53:54.775Z,11.60
2022-08-12T03:56:40.646Z,11.50
2022-08-12T03:59:26.927Z,11.50
2022-08-12T04:01:57.875Z,11.40
2022-08-12T04:04:35.037Z,11.40
2022-08-12T04:07:11.003Z,11.50
2022-08-12T04:09:42.877Z,11.50
2022-08-12T04:12:35.695Z,11.50
2022-08-12T04:15:05.637Z,11.50
2022-08-12T04:17:33.688Z,11.60
2022-08-12T04:20:03.576Z,11.60
2022-08-12T04:22:31.241Z,11.70
2022-08-12T04:25:01.243Z,11.70
2022-08-12T04:27:31.450Z,11.70
2022-08-12T04:30:16.685Z,11.70
2022-08-12T04:32:50.063Z,11.80
2022-08-12T04:35:17.301Z,11.80
2022-08-12T04:37:59.938Z,11.80
2022-08-12T04:40:30.328Z,11.90
2022-08-12T04:43:01.492Z,11.90
2022-08-12T04:45:29.593Z,12.00
2022-08-12T04:47:56.787Z,12.00
2022-08-12T04:50:35.264Z,12.10
2022-08-12T04:53:05.797Z,12.20
2022-08-12T04:55:40.963Z,12.30
2022-08-12T04:58:08.677Z,12.40
2022-08-12T05:00:37.888Z,12.50
2022-08-12T05:03:06.412Z,12.50
2022-08-12T05:05:36.444Z,12.60
2022-08-12T05:08:17.915Z,12.70
2022-08-12T05:10:46.527Z,12.90
2022-08-12T05:13:17.513Z,13.00
2022-08-12T05:16:04.740Z,13.10
2022-08-12T05:18:40.842Z,13.20
2022-08-12T05:21:15.783Z,13.30
2022-08-12T05:23:47.460Z,13.50
2022-08-12T05:26:14.287Z,13.60
2022-08-12T05:28:41.326Z,13.70
2022-08-12T05:31:08.306Z,13.90
2022-08-12T05:33:41.085Z,14.00
2022-08-12T05:36:10.163Z,14.20
2022-08-12T05:38:59.452Z,14.40
2022-08-12T05:41:32.214Z,14.60
2022-08-12T05:44:01.482Z,14.80
2022-08-12T05:46:34.648Z,15.00
2022-08-12T05:49:02.380Z,15.20
2022-08-12T05:51:40.441Z,15.30
2022-08-12T05:54:09.584Z,15.50
2022-08-12T05:56:36.623Z,15.60
2022-08-12T05:59:11.271Z,15.80
2022-08-12T06:02:10.937Z,16.00
2022-08-12T06:04:26.090Z,16.30
2022-08-12T06:06:53.444Z,16.50
2022-08-12T06:09:22.480Z,16.70
2022-08-12T06:12:05.570Z,16.80
2022-08-12T06:14:39.209Z,16.90
2022-08-12T06:17:11.251Z,17.10
2022-08-12T06:20:26.131Z,17.30
2022-08-12T06:22:26.661Z,17.50
2022-08-12T06:24:53.559Z,17.60
2022-08-12T06:27:21.839Z,17.80
2022-08-12T06:30:08.207Z,18.00
2022-08-12T06:32:42.740Z,18.20
2022-08-12T06:35:25.990Z,18.40
2022-08-12T06:38:18.031Z,18.50
2022-08-12T06:41:05.373Z,18.70
2022-08-12T06:44:04.414Z,19.00
2022-08-12T06:46:24.482Z,19.10
2022-08-12T06:48:56.885Z,19.30
2022-08-12T06:51:29.926Z,19.40
2022-08-12T06:53:58.136Z,19.50
2022-08-12T06:56:40.207Z,19.70
2022-08-12T06:59:14.721Z,19.80
2022-08-12T07:01:50.659Z,19.90
2022-08-12T07:04:38.994Z,20.00
2022-08-12T07:07:11.068Z,20.20
2022-08-12T07:10:04.805Z,20.30
2022-08-12T07:12:32.283Z,20.60
2022-08-12T07:15:01.557Z,20.60
2022-08-12T07:17:37.799Z,20.80
2022-08-12T07:20:13.725Z,21.00
2022-08-12T07:23:02.392Z,21.10
2022-08-12T07:25:40.453Z,21.20
2022-08-12T07:28:25.608Z,21.40
2022-08-12T07:30:56.510Z,21.60
2022-08-12T07:33:28.600Z,21.70
2022-08-12T07:35:58.778Z,21.90
2022-08-12T07:38:40.775Z,22.00
2022-08-12T07:41:08.360Z,22.10
2022-08-12T07:43:54.390Z,22.20
2022-08-12T07:46:31.663Z,22.40
2022-08-12T07:49:05.647Z,22.50
2022-08-12T07:51:32.837Z,22.60
2022-08-12T07:54:03.048Z,22.70
2022-08-12T07:56:31.799Z,22.70
2022-08-12T07:59:01.019Z,22.80
2022-08-12T08:01:28.190Z,22.90
2022-08-12T08:04:18.532Z,23.00
2022-08-12T08:06:46.909Z,23.10
2022-08-12T08:09:18.933Z,23.30
2022-08-12T08:12:04.338Z,23.40
2022-08-12T08:14:31.767Z,23.50
2022-08-12T08:17:00.657Z,23.60
2022-08-12T08:19:31.739Z,23.60
2022-08-12T08:22:01.273Z,23.70
2022-08-12T08:24:29.063Z,23.90
2022-08-12T08:26:58.611Z,23.90
2022-08-12T08:29:29.301Z,23.90
2022-08-12T08:32:00.007Z,24.00
2022-08-12T08:34:54.103Z,24.20
2022-08-12T08:37:17.078Z,24.10
2022-08-12T08:39:44.367Z,24.20
2022-08-12T08:42:30.074Z,24.40
2022-08-12T08:44:58.866Z,24.40
2022-08-12T08:47:26.276Z,24.60
2022-08-12T08:49:53.808Z,24.70
2022-08-12T08:52:40.555Z,24.80
2022-08-12T08:55:15.482Z,24.80
2022-08-12T08:57:53.341Z,24.70
2022-08-12T09:00:20.621Z,24.80
2022-08-12T09:02:59.440Z,24.90
2022-08-12T09:05:43.243Z,25.00
2022-08-12T09:08:22.354Z,25.00
2022-08-12T09:10:59.835Z,25.10
2022-08-12T09:14:09.914Z,25.30
2022-08-12T09:16:21.433Z,25.20
2022-08-12T09:18:52.607Z,25.20
2022-08-12T09:21:23.247Z,25.30
2022-08-12T09:23:58.792Z,25.40
2022-08-12T09:26:38.313Z,25.20
2022-08-12T09:30:11.878Z,25.30
2022-08-12T09:32:11.548Z,25.40
2022-08-12T09:34:56.820Z,25.40
2022-08-12T09:37:26.548Z,25.40
2022-08-12T09:40:03.305Z,25.40
2022-08-12T09:43:15.276Z,25.50
2022-08-12T09:46:07.083Z,25.30
2022-08-12T09:48:44.446Z,25.40
2022-08-12T09:51:22.113Z,25.50
2022-08-12T09:54:05.633Z,25.60
2022-08-12T09:56:58.633Z,25.70
2022-08-12T10:00:12.767Z,25.80
2022-08-12T10:02:45.602Z,25.80
2022-08-12T10:05:04.362Z,25.80
2022-08-12T10:07:40.576Z,25.90
2022-08-12T10:10:24.801Z,26.10
2022-08-12T10:13:33.914Z,26.00
2022-08-12T10:16:06.217Z,26.10
2022-08-12T10:18:51.295Z,26.30
2022-08-12T10:21:35.907Z,26.40
2022-08-12T10:24:20.368Z,26.40
2022-08-12T10:27:08.120Z,26.40
2022-08-12T10:30:37.843Z,26.40
2022-08-12T10:32:44.783Z,26.50
2022-08-12T10:35:16.163Z,26.60
2022-08-12T10:38:38.444Z,26.70
2022-08-12T10:40:33.931Z,26.80
2022-08-12T10:43:22.634Z,26.80
2022-08-12T10:45:53.253Z,26.90
2022-08-12T10:48:27.154Z,27.00
2022-08-12T10:52:03.180Z,27.00
2022-08-12T10:53:52.512Z,27.20
2022-08-12T10:56:23.430Z,27.30
2022-08-12T10:58:55.809Z,27.40
2022-08-12T11:01:25.788Z,27.30
2022-08-12T11:04:26.470Z,27.10
2022-08-12T11:07:05.762Z,26.90
2022-08-12T11:09:59.671Z,26.70
2022-08-12T11:12:55.987Z,26.60
2022-08-12T11:15:24.301Z,26.80
2022-08-12T11:18:18.749Z,27.10
2022-08-12T11:20:48.141Z,27.30
2022-08-12T11:23:25.995Z,27.70
2022-08-12T11:26:05.900Z,27.90
2022-08-12T11:28:37.049Z,28.30
2022-08-12T11:31:12.027Z,28.50
2022-08-12T11:34:05.378Z,28.70
2022-08-12T11:36:39.144Z,28.90
2022-08-12T11:39:07.587Z,29.20
2022-08-12T11:41:39.336Z,29.20
2022-08-12T11:44:35.117Z,29.10
2022-08-12T11:46:57.957Z,29.20
2022-08-12T11:49:31.787Z,29.30
2022-08-12T11:52:27.962Z,29.20
2022-08-12T11:54:54.586Z,29.10
2022-08-12T11:58:07.411Z,29.20
2022-08-12T12:02:57.112Z,29.60
2022-08-12T12:05:28.371Z,29.50
2022-08-12T12:08:41.776Z,29.30
2022-08-12T12:10:42.406Z,29.00
2022-08-12T12:13:11.686Z,28.70
2022-08-12T12:15:50.089Z,28.60
2022-08-12T12:18:31.736Z,28.60
2022-08-12T12:21:04.837Z,28.40
2022-08-12T12:23:36.574Z,28.30
2022-08-12T12:26:09.879Z,28.20
2022-08-12T12:28:54.467Z,28.60
2022-08-12T12:32:11.173Z,29.00
2022-08-12T12:34:11.386Z,28.70
2022-08-12T12:37:02.811Z,28.50
2022-08-12T12:39:29.854Z,28.30
2022-08-12T12:42:43.251Z,28.10
2022-08-12T12:45:19.091Z,27.90
2022-08-12T12:48:01.381Z,28.00
2022-08-12T12:50:42.775Z,28.50
2022-08-12T12:54:08.888Z,28.40
2022-08-12T12:56:12.201Z,28.30
2022-08-12T12:58:43.452Z,28.10
2022-08-12T13:01:25.660Z,28.00
2022-08-12T13:03:56.473Z,27.90
2022-08-12T13:06:30.176Z,27.70
2022-08-12T13:09:02.466Z,27.60
2022-08-12T13:11:40.892Z,28.20
2022-08-12T13:14:30.934Z,28.90
2022-08-12T13:17:02.817Z,29.40
2022-08-12T13:19:38.754Z,29.80
2022-08-12T13:22:23.401Z,30.30
2022-08-12T13:24:55.629Z,30.70
2022-08-12T13:27:35.036Z,31.00
2022-08-12T13:30:12.020Z,31.30
2022-08-12T13:32:57.276Z,31.60
2022-08-12T13:36:04.733Z,31.70
2022-08-12T13:38:38.688Z,31.70
2022-08-12T13:41:16.460Z,31.90
2022-08-12T13:43:45.005Z,32.10
2022-08-12T13:46:14.863Z,32.30
2022-08-12T13:48:50.779Z,32.50
2022-08-12T13:51:24.185Z,32.80
2022-08-12T13:53:58.188Z,32.80
2022-08-12T13:56:34.723Z,32.50
2022-08-12T13:59:08.104Z,32.10
2022-08-12T14:01:40.275Z,32.20
2022-08-12T14:04:11.351Z,31.70
2022-08-12T14:06:44.977Z,31.30
2022-08-12T14:09:17.493Z,31.00
2022-08-12T14:11:59.486Z,30.60
2022-08-12T14:14:31.596Z,30.40
2022-08-12T14:17:09.952Z,30.10
2022-08-12T14:19:48.669Z,30.00
2022-08-12T14:22:20.601Z,30.40
2022-08-12T14:24:47.381Z,30.90
2022-08-12T14:27:14.447Z,31.30
2022-08-12T14:30:05.351Z,31.70
2022-08-12T14:32:45.314Z,31.70
2022-08-12T14:35:12.482Z,31.70
2022-08-12T14:37:55.497Z,32.00
2022-08-12T14:40:30.006Z,32.40
2022-08-12T14:42:59.847Z,32.70
2022-08-12T14:45:44.685Z,32.80
2022-08-12T14:48:15.920Z,32.90
2022-08-12T14:51:02.865Z,32.80
2022-08-12T14:59:26.375Z,32.80
2022-08-12T15:01:54.595Z,33.00
2022-08-12T15:04:24.669Z,32.20
2022-08-12T15:06:55.018Z,31.70
2022-08-12T15:09:28.791Z,31.60
2022-08-12T15:12:03.842Z,31.60
2022-08-12T15:14:32.096Z,31.50
2022-08-12T15:17:07.058Z,31.60
2022-08-12T15:20:28.647Z,31.60
2022-08-12T15:22:38.341Z,31.90
2022-08-12T15:25:07.403Z,31.80
2022-08-12T15:28:03.972Z,32.10
2022-08-12T15:30:30.340Z,32.20
2022-08-12T15:33:00.512Z,32.20
2022-08-12T15:35:52.026Z,32.30
2022-08-12T15:38:21.397Z,32.20
2022-08-12T15:40:50.794Z,32.20
2022-08-12T15:43:51.403Z,32.10
2022-08-12T15:46:15.528Z,32.20
2022-08-12T15:48:46.700Z,32.00
2022-08-12T15:51:58.982Z,32.00
2022-08-12T15:54:33.803Z,31.80
2022-08-12T15:57:08.178Z,31.70
2022-08-12T16:00:00.389Z,31.20
2022-08-12T16:02:31.492Z,30.70
2022-08-12T16:04:59.133Z,30.70
2022-08-12T16:07:32.500Z,30.70
2022-08-12T16:10:07.140Z,30.70
2022-08-12T16:12:43.624Z,30.70
2022-08-12T16:15:23.088Z,30.70
2022-08-12T16:18:19.635Z,30.60
2022-08-12T16:20:42.049Z,30.60
2022-08-12T16:23:36.239Z,30.50
2022-08-12T16:26:06.097Z,30.40
2022-08-12T16:28:43.301Z,30.10
2022-08-12T16:31:13.312Z,30.00
2022-08-12T16:33:58.923Z,29.70
2022-08-12T16:36:30.001Z,29.50
2022-08-12T16:39:01.340Z,29.60
2022-08-12T16:41:29.377Z,29.50
2022-08-12T16:44:08.677Z,29.40
2022-08-12T16:46:37.838Z,29.30
2022-08-12T16:49:08.972Z,29.20
2022-08-12T16:51:46.393Z,29.00
2022-08-12T16:54:16.590Z,28.80
2022-08-12T16:56:55.473Z,28.50
2022-08-12T16:59:31.066Z,28.40
2022-08-12T17:02:31.806Z,28.10
2022-08-12T17:05:04.671Z,27.90
2022-08-12T17:07:43.327Z,27.80
2022-08-12T17:10:14.031Z,27.70
2022-08-12T17:12:45.594Z,27.70
2022-08-12T17:15:50.752Z,27.60
2022-08-12T17:18:38.901Z,27.60
2022-08-12T17:21:07.844Z,27.60
2022-08-12T17:23:48.310Z,27.60
2022-08-12T17:26:22.253Z,27.50
2022-08-12T17:28:52.424Z,27.50
2022-08-12T17:31:59.596Z,27.50
2022-08-12T17:34:17.419Z,27.40
2022-08-12T17:36:45.443Z,27.30
2022-08-12T17:39:16.847Z,27.30
2022-08-12T17:41:57.191Z,27.30
2022-08-12T17:44:24.342Z,27.20
2022-08-12T17:46:53.684Z,27.30
2022-08-12T17:50:03.116Z,27.50
2022-08-12T17:52:14.927Z,27.90
2022-08-12T17:54:45.602Z,28.60
2022-08-12T17:57:16.247Z,29.30
2022-08-12T17:59:49.543Z,29.70
2022-08-12T18:02:22.591Z,30.00
2022-08-12T18:05:04.976Z,30.00
2022-08-12T18:07:37.217Z,30.10
2022-08-12T18:10:07.051Z,29.90
2022-08-12T18:12:51.130Z,29.90
2022-08-12T18:15:26.960Z,29.80
2022-08-12T18:18:17.456Z,29.10
2022-08-12T18:20:46.935Z,28.20
2022-08-12T18:23:13.842Z,27.50
2022-08-12T18:26:14.335Z,27.00
2022-08-12T18:28:44.800Z,26.50
2022-08-12T18:31:32.924Z,25.90
2022-08-12T18:34:12.238Z,25.50
2022-08-12T18:36:39.726Z,25.30
2022-08-12T18:39:19.492Z,24.90
2022-08-12T18:41:48.345Z,24.70
2022-08-12T18:44:19.060Z,24.40
2022-08-12T18:46:53.995Z,24.10
2022-08-12T18:49:32.076Z,24.00
2022-08-12T18:52:04.752Z,23.80
2022-08-12T18:54:49.040Z,23.50
2022-08-12T18:58:06.242Z,23.20
2022-08-12T19:00:18.811Z,22.90
2022-08-12T19:02:51.838Z,22.70
2022-08-12T19:05:21.233Z,22.40
2022-08-12T19:08:01.232Z,22.20
2022-08-12T19:10:31.072Z,22.20
2022-08-12T19:13:33.053Z,22.00
2022-08-12T19:16:13.318Z,21.90
2022-08-12T19:18:44.808Z,21.70
2022-08-12T19:21:15.928Z,21.50
2022-08-12T19:24:04.776Z,21.50
2022-08-12T19:26:33.350Z,21.40
2022-08-12T19:29:02.994Z,21.30
2022-08-12T19:31:57.562Z,21.20
2022-08-12T19:38:03.163Z,20.90
2022-08-12T19:40:31.094Z,20.60
2022-08-12T19:43:01.458Z,20.40
2022-08-12T19:45:42.039Z,20.30
2022-08-12T19:48:16.432Z,20.20
2022-08-12T19:50:50.211Z,20.10
2022-08-12T19:53:18.657Z,20.00
2022-08-12T19:55:50.710Z,19.90
2022-08-12T19:58:20.520Z,19.80
2022-08-12T20:00:53.611Z,19.70
2022-08-12T20:03:39.319Z,19.60
2022-08-12T20:06:15.605Z,19.50
2022-08-12T20:08:49.342Z,19.40
2022-08-12T20:12:15.041Z,19.40
2022-08-12T20:14:18.465Z,19.30
2022-08-12T20:16:57.675Z,19.30
2022-08-12T20:20:05.541Z,19.30
2022-08-12T20:22:29.875Z,19.20
2022-08-12T20:25:08.496Z,19.20
2022-08-12T20:28:05.344Z,19.10
2022-08-12T20:30:37.959Z,19.00
2022-08-12T20:33:17.665Z,19.00
2022-08-12T20:36:13.506Z,18.90
2022-08-12T20:38:39.735Z,18.90
2022-08-12T20:41:17.767Z,18.80
2022-08-12T20:43:51.831Z,18.80
2022-08-12T20:46:22.821Z,18.70
2022-08-12T20:48:54.516Z,18.70
2022-08-12T20:51:22.844Z,18.60
2022-08-12T20:53:57.959Z,18.60
2022-08-12T20:56:39.990Z,18.50
2022-08-12T20:59:19.803Z,18.50
2022-08-12T21:01:49.028Z,18.40
2022-08-12T21:04:37.124Z,18.40
2022-08-12T21:07:09.592Z,18.30
2022-08-12T21:09:47.452Z,18.30
2022-08-12T21:12:27.718Z,18.20
2022-08-12T21:15:23.614Z,18.20
2022-08-12T21:18:20.648Z,18.10
2022-08-12T21:20:52.756Z,18.10
2022-08-12T21:23:21.702Z,18.00
2022-08-12T21:25:56.732Z,18.00
2022-08-12T21:28:31.474Z,17.90
2022-08-12T21:32:34.817Z,17.90
2022-08-12T21:34:08.066Z,17.80
2022-08-12T21:36:43.419Z,17.80
2022-08-12T21:39:23.349Z,17.70
2022-08-12T21:41:54.944Z,17.70
2022-08-12T21:45:44.382Z,17.60
2022-08-12T21:47:19.757Z,17.50
2022-08-12T21:49:55.091Z,17.40
2022-08-12T21:52:34.137Z,17.30
2022-08-12T21:55:03.296Z,17.30
2022-08-12T21:57:30.394Z,17.20
2022-08-12T22:00:16.780Z,17.20
2022-08-12T22:03:03.179Z,17.10
2022-08-12T22:05:49.100Z,17.00
2022-08-12T22:08:22.333Z,17.00
2022-08-12T22:10:56.110Z,17.00
2022-08-12T22:14:02.157Z,17.00
2022-08-12T22:16:13.306Z,16.90
2022-08-12T22:18:44.400Z,16.80
2022-08-12T22:21:22.206Z,16.70
2022-08-12T22:24:04.921Z,16.80
2022-08-12T22:26:37.579Z,16.70
2022-08-12T22:29:27.491Z,16.70
2022-08-12T22:31:55.853Z,16.70
2022-08-12T22:34:29.861Z,16.60
2022-08-12T22:37:00.416Z,16.50
2022-08-12T22:39:30.274Z,16.50
2022-08-12T22:42:20.046Z,16.50
2022-08-12T22:45:05.617Z,16.50
2022-08-12T22:47:54.184Z,16.50
2022-08-12T22:50:27.251Z,16.50
2022-08-12T22:53:14.962Z,16.50
2022-08-12T22:56:00.591Z,16.50
2022-08-12T22:58:33.581Z,16.60
2022-08-12T23:01:02.342Z,16.60
2022-08-12T23:03:48.204Z,16.60
2022-08-12T23:06:23.634Z,16.60
2022-08-12T23:08:52.146Z,16.50
2022-08-12T23:11:23.718Z,16.40
2022-08-12T23:13:56.334Z,16.30
2022-08-12T23:16:30.894Z,16.30
2022-08-12T23:19:09.506Z,16.20
2022-08-12T23:22:06.569Z,16.20
2022-08-12T23:24:30.003Z,16.10
2022-08-12T23:27:16.545Z,16.10
2022-08-12T23:30:05.915Z,16.10
2022-08-12T23:32:36.769Z,16.00
2022-08-12T23:35:08.344Z,16.00
2022-08-12T23:37:47.327Z,16.00
2022-08-12T23:40:22.379Z,16.00
2022-08-12T23:42:55.091Z,16.00
2022-08-12T23:45:31.295Z,16.00
2022-08-12T23:48:02.250Z,15.90
2022-08-12T23:50:34.558Z,15.90
2022-08-12T23:53:06.670Z,15.90
2022-08-12T23:55:50.677Z,15.90
2022-08-12T23:58:22.979Z,15.90
